sensor_id;sensor_type;location;lat;lon;timestamp;pressure;altitude;pressure_sealevel;temperature;humidity
6345;BME280;3205;42.666;23.264;2023-01-29T00:00:39;94458.53;;;2.26;nan
6345;BME280;3205;42.666;23.264;2023-01-29T00:03:05;94466.38;;;2.26;nan
6345;BME280;3205;42.666;23.264;2023-01-29T00:05:33;94469.56;;;2.18;nan
6345;BME280;3205;42.666;23.264;2023-01-29T00:08:00;94465.09;;;2.23;nan
6345;BME280;3205;42.666;23.264;2023-01-29T00:10:27;94461.19;;;2.21;nan
6345;BME280;3205;42.666;23.264;2023-01-29T00:12:53;94463.78;;;2.21;nan
6345;BME280;3205;42.666;23.264;2023-01-29T00:15:19;94471.00;;;2.29;nan
6345;BME280;3205;42.666;23.264;2023-01-29T00:17:45;94463.78;;;2.21;nan
6345;BME280;3205;42.666;23.264;2023-01-29T00:20:12;94468.75;;;2.22;nan
6345;BME280;3205;42.666;23.264;2023-01-29T00:22:38;94475.16;;;2.30;nan
6345;BME280;3205;42.666;23.264;2023-01-29T00:25:06;94481.03;;;2.40;nan
6345;BME280;3205;42.666;23.264;2023-01-29T00:27:32;94479.41;;;2.26;nan
6345;BME280;3205;42.666;23.264;2023-01-29T00:29:59;94474.41;;;2.29;nan
6345;BME280;3205;42.666;23.264;2023-01-29T00:32:37;94482.00;;;2.26;nan
6345;BME280;3205;42.666;23.264;2023-01-29T00:35:04;94474.78;;;2.18;nan
6345;BME280;3205;42.666;23.264;2023-01-29T00:37:30;94478.78;;;2.11;nan
6345;BME280;3205;42.666;23.264;2023-01-29T00:39:56;94470.91;;;2.16;nan
6345;BME280;3205;42.666;23.264;2023-01-29T00:42:43;94482.78;;;2.26;nan
6345;BME280;3205;42.666;23.264;2023-01-29T00:45:28;94483.75;;;2.07;nan
6345;BME280;3205;42.666;23.264;2023-01-29T00:47:54;94484.78;;;2.11;nan
6345;BME280;3205;42.666;23.264;2023-01-29T00:50:20;94477.69;;;2.17;nan
6345;BME280;3205;42.666;23.264;2023-01-29T00:52:46;94476.38;;;2.14;nan
6345;BME280;3205;42.666;23.264;2023-01-29T00:55:14;94481.00;;;2.22;nan
6345;BME280;3205;42.666;23.264;2023-01-29T00:57:40;94481.34;;;2.16;nan
6345;BME280;3205;42.666;23.264;2023-01-29T01:00:10;94478.88;;;2.24;nan
6345;BME280;3205;42.666;23.264;2023-01-29T01:02:37;94480.56;;;2.15;nan
6345;BME280;3205;42.666;23.264;2023-01-29T01:05:21;94477.56;;;2.03;nan
6345;BME280;3205;42.666;23.264;2023-01-29T01:07:50;94468.03;;;2.17;nan
6345;BME280;3205;42.666;23.264;2023-01-29T01:10:18;94482.69;;;2.13;nan
6345;BME280;3205;42.666;23.264;2023-01-29T01:12:49;94472.03;;;2.10;nan
6345;BME280;3205;42.666;23.264;2023-01-29T01:15:17;94470.13;;;2.15;nan
6345;BME280;3205;42.666;23.264;2023-01-29T01:17:44;94473.31;;;2.12;nan
6345;BME280;3205;42.666;23.264;2023-01-29T01:20:12;94469.56;;;2.18;nan
6345;BME280;3205;42.666;23.264;2023-01-29T01:22:38;94471.41;;;2.17;nan
6345;BME280;3205;42.666;23.264;2023-01-29T01:25:05;94475.13;;;2.12;nan
6345;BME280;3205;42.666;23.264;2023-01-29T01:27:31;94476.81;;;2.03;nan
6345;BME280;3205;42.666;23.264;2023-01-29T01:29:59;94473.31;;;2.12;nan
6345;BME280;3205;42.666;23.264;2023-01-29T01:32:26;94468.34;;;2.11;nan
6345;BME280;3205;42.666;23.264;2023-01-29T01:34:52;94467.56;;;2.10;nan
6345;BME280;3205;42.666;23.264;2023-01-29T01:37:18;94471.16;;;2.14;nan
6345;BME280;3205;42.666;23.264;2023-01-29T01:39:45;94473.78;;;2.14;nan
6345;BME280;3205;42.666;23.264;2023-01-29T01:42:13;94474.88;;;2.08;nan
6345;BME280;3205;42.666;23.264;2023-01-29T01:45:04;94475.94;;;2.07;nan
6345;BME280;3205;42.666;23.264;2023-01-29T01:47:36;94473.00;;;2.14;nan
6345;BME280;3205;42.666;23.264;2023-01-29T01:50:09;94482.00;;;2.03;nan
6345;BME280;3205;42.666;23.264;2023-01-29T01:52:40;94484.22;;;2.14;nan
6345;BME280;3205;42.666;23.264;2023-01-29T01:55:11;94475.13;;;2.12;nan
6345;BME280;3205;42.666;23.264;2023-01-29T01:57:38;94476.97;;;2.11;nan
6345;BME280;3205;42.666;23.264;2023-01-29T02:00:09;94486.78;;;2.19;nan
6345;BME280;3205;42.666;23.264;2023-01-29T02:02:38;94481.34;;;2.16;nan
6345;BME280;3205;42.666;23.264;2023-01-29T02:05:25;94490.81;;;2.07;nan
6345;BME280;3205;42.666;23.264;2023-01-29T02:08:10;94491.59;;;2.07;nan
6345;BME280;3205;42.666;23.264;2023-01-29T02:10:55;94483.94;;;1.92;nan
6345;BME280;3205;42.666;23.264;2023-01-29T02:13:22;94483.09;;;1.97;nan
6345;BME280;3205;42.666;23.264;2023-01-29T02:15:49;94481.00;;;1.99;nan
6345;BME280;3205;42.666;23.264;2023-01-29T02:18:18;94486.94;;;2.04;nan
6345;BME280;3205;42.666;23.264;2023-01-29T02:20:48;94485.00;;;2.15;nan
6345;BME280;3205;42.666;23.264;2023-01-29T02:26:45;94479.44;;;2.21;nan
6345;BME280;3205;42.666;23.264;2023-01-29T02:29:20;94484.34;;;2.04;nan
6345;BME280;3205;42.666;23.264;2023-01-29T02:31:59;94488.44;;;2.10;nan
6345;BME280;3205;42.666;23.264;2023-01-29T02:34:37;94488.97;;;2.07;nan
6345;BME280;3205;42.666;23.264;2023-01-29T02:37:28;94492.91;;;2.05;nan
6345;BME280;3205;42.666;23.264;2023-01-29T02:40:06;94497.22;;;2.19;nan
6345;BME280;3205;42.666;23.264;2023-01-29T02:42:38;94505.50;;;2.21;nan
6345;BME280;3205;42.666;23.264;2023-01-29T02:45:11;94502.13;;;2.20;nan
6345;BME280;3205;42.666;23.264;2023-01-29T02:47:44;94511.75;;;2.25;nan
6345;BME280;3205;42.666;23.264;2023-01-29T02:50:18;94511.22;;;2.23;nan
6345;BME280;3205;42.666;23.264;2023-01-29T02:52:51;94513.00;;;2.27;nan
6345;BME280;3205;42.666;23.264;2023-01-29T02:55:24;94514.94;;;2.17;nan
6345;BME280;3205;42.666;23.264;2023-01-29T02:57:56;94508.19;;;2.16;nan
6345;BME280;3205;42.666;23.264;2023-01-29T03:00:28;94506.91;;;2.14;nan
6345;BME280;3205;42.666;23.264;2023-01-29T03:02:59;94504.06;;;2.10;nan
6345;BME280;3205;42.666;23.264;2023-01-29T03:05:30;94503.84;;;2.07;nan
6345;BME280;3205;42.666;23.264;2023-01-29T03:08:00;94499.91;;;2.09;nan
6345;BME280;3205;42.666;23.264;2023-01-29T03:10:34;94498.88;;;2.10;nan
6345;BME280;3205;42.666;23.264;2023-01-29T03:13:06;94503.56;;;2.08;nan
6345;BME280;3205;42.666;23.264;2023-01-29T03:15:39;94499.09;;;2.14;nan
6345;BME280;3205;42.666;23.264;2023-01-29T03:18:13;94501.25;;;2.07;nan
6345;BME280;3205;42.666;23.264;2023-01-29T03:20:44;94498.94;;;2.05;nan
6345;BME280;3205;42.666;23.264;2023-01-29T03:23:19;94504.13;;;2.05;nan
6345;BME280;3205;42.666;23.264;2023-01-29T03:25:50;94511.44;;;2.03;nan
6345;BME280;3205;42.666;23.264;2023-01-29T03:28:37;94510.13;;;2.06;nan
6345;BME280;3205;42.666;23.264;2023-01-29T03:31:25;94515.03;;;2.07;nan
6345;BME280;3205;42.666;23.264;2023-01-29T03:34:13;94506.97;;;2.09;nan
6345;BME280;3205;42.666;23.264;2023-01-29T03:36:48;94513.84;;;2.00;nan
6345;BME280;3205;42.666;23.264;2023-01-29T03:39:21;94513.09;;;1.94;nan
6345;BME280;3205;42.666;23.264;2023-01-29T03:41:53;94512.00;;;2.00;nan
6345;BME280;3205;42.666;23.264;2023-01-29T03:44:29;94514.56;;;2.05;nan
6345;BME280;3205;42.666;23.264;2023-01-29T03:47:08;94505.19;;;2.04;nan
6345;BME280;3205;42.666;23.264;2023-01-29T03:49:52;94508.56;;;2.05;nan
6345;BME280;3205;42.666;23.264;2023-01-29T03:52:26;94513.50;;;2.06;nan
6345;BME280;3205;42.666;23.264;2023-01-29T03:54:57;94503.13;;;2.01;nan
6345;BME280;3205;42.666;23.264;2023-01-29T03:57:34;94510.84;;;2.11;nan
6345;BME280;3205;42.666;23.264;2023-01-29T04:00:07;94501.78;;;2.04;nan
6345;BME280;3205;42.666;23.264;2023-01-29T04:02:44;94515.00;;;2.12;nan
6345;BME280;3205;42.666;23.264;2023-01-29T04:05:16;94505.91;;;2.10;nan
6345;BME280;3205;42.666;23.264;2023-01-29T04:07:44;94508.50;;;1.86;nan
6345;BME280;3205;42.666;23.264;2023-01-29T04:10:14;94503.19;;;1.96;nan
6345;BME280;3205;42.666;23.264;2023-01-29T04:12:44;94509.38;;;2.00;nan
6345;BME280;3205;42.666;23.264;2023-01-29T04:15:14;94508.91;;;1.98;nan
6345;BME280;3205;42.666;23.264;2023-01-29T04:17:46;94515.16;;;1.97;nan
6345;BME280;3205;42.666;23.264;2023-01-29T04:20:13;94521.53;;;1.86;nan
6345;BME280;3205;42.666;23.264;2023-01-29T04:22:43;94532.13;;;1.95;nan
6345;BME280;3205;42.666;23.264;2023-01-29T04:25:12;94518.31;;;1.94;nan
6345;BME280;3205;42.666;23.264;2023-01-29T04:27:44;94520.69;;;1.91;nan
6345;BME280;3205;42.666;23.264;2023-01-29T04:30:25;94524.78;;;1.97;nan
6345;BME280;3205;42.666;23.264;2023-01-29T04:33:03;94524.25;;;2.00;nan
6345;BME280;3205;42.666;23.264;2023-01-29T04:35:37;94527.16;;;1.98;nan
6345;BME280;3205;42.666;23.264;2023-01-29T04:38:11;94528.25;;;1.92;nan
6345;BME280;3205;42.666;23.264;2023-01-29T04:40:46;94528.72;;;1.94;nan
6345;BME280;3205;42.666;23.264;2023-01-29T04:43:21;94530.81;;;1.97;nan
6345;BME280;3205;42.666;23.264;2023-01-29T04:46:01;94528.69;;;1.99;nan
6345;BME280;3205;42.666;23.264;2023-01-29T04:48:41;94523.22;;;2.01;nan
6345;BME280;3205;42.666;23.264;2023-01-29T04:51:14;94534.47;;;1.96;nan
6345;BME280;3205;42.666;23.264;2023-01-29T04:53:46;94532.84;;;2.00;nan
6345;BME280;3205;42.666;23.264;2023-01-29T04:56:18;94533.84;;;2.04;nan
6345;BME280;3205;42.666;23.264;2023-01-29T04:58:50;94537.50;;;2.03;nan
6345;BME280;3205;42.666;23.264;2023-01-29T05:01:18;94529.75;;;1.98;nan
6345;BME280;3205;42.666;23.264;2023-01-29T05:03:51;94533.47;;;1.92;nan
6345;BME280;3205;42.666;23.264;2023-01-29T05:06:19;94534.88;;;1.80;nan
6345;BME280;3205;42.666;23.264;2023-01-29T05:08:46;94541.75;;;1.94;nan
6345;BME280;3205;42.666;23.264;2023-01-29T05:11:14;94533.47;;;1.92;nan
6345;BME280;3205;42.666;23.264;2023-01-29T05:13:41;94541.28;;;1.92;nan
6345;BME280;3205;42.666;23.264;2023-01-29T05:16:13;94540.66;;;2.00;nan
6345;BME280;3205;42.666;23.264;2023-01-29T05:18:41;94545.84;;;2.05;nan
6345;BME280;3205;42.666;23.264;2023-01-29T05:21:08;94548.00;;;1.98;nan
6345;BME280;3205;42.666;23.264;2023-01-29T05:23:35;94544.13;;;1.96;nan
6345;BME280;3205;42.666;23.264;2023-01-29T05:26:01;94542.31;;;1.91;nan
6345;BME280;3205;42.666;23.264;2023-01-29T05:28:27;94548.59;;;1.90;nan
6345;BME280;3205;42.666;23.264;2023-01-29T05:30:54;94551.59;;;2.02;nan
6345;BME280;3205;42.666;23.264;2023-01-29T05:33:22;94554.38;;;2.11;nan
6345;BME280;3205;42.666;23.264;2023-01-29T05:35:49;94560.44;;;2.06;nan
6345;BME280;3205;42.666;23.264;2023-01-29T05:38:17;94554.81;;;2.17;nan
6345;BME280;3205;42.666;23.264;2023-01-29T05:40:44;94558.28;;;2.13;nan
6345;BME280;3205;42.666;23.264;2023-01-29T05:43:15;94555.91;;;2.17;nan
6345;BME280;3205;42.666;23.264;2023-01-29T05:45:42;94559.09;;;2.09;nan
6345;BME280;3205;42.666;23.264;2023-01-29T05:48:08;94557.78;;;2.11;nan
6345;BME280;3205;42.666;23.264;2023-01-29T05:50:34;94567.16;;;2.12;nan
6345;BME280;3205;42.666;23.264;2023-01-29T05:53:01;94567.38;;;2.16;nan
6345;BME280;3205;42.666;23.264;2023-01-29T05:55:28;94566.78;;;2.23;nan
6345;BME280;3205;42.666;23.264;2023-01-29T05:57:54;94575.38;;;2.24;nan
6345;BME280;3205;42.666;23.264;2023-01-29T06:00:21;94574.09;;;2.21;nan
6345;BME280;3205;42.666;23.264;2023-01-29T06:02:47;94569.94;;;2.20;nan
6345;BME280;3205;42.666;23.264;2023-01-29T06:05:14;94575.91;;;2.21;nan
6345;BME280;3205;42.666;23.264;2023-01-29T06:07:40;94576.69;;;2.21;nan
6345;BME280;3205;42.666;23.264;2023-01-29T06:10:11;94586.84;;;2.23;nan
6345;BME280;3205;42.666;23.264;2023-01-29T06:12:37;94586.53;;;2.29;nan
6345;BME280;3205;42.666;23.264;2023-01-29T06:15:04;94585.84;;;2.19;nan
6345;BME280;3205;42.666;23.264;2023-01-29T06:17:31;94586.56;;;2.24;nan
6345;BME280;3205;42.666;23.264;2023-01-29T06:19:57;94595.41;;;2.28;nan
6345;BME280;3205;42.666;23.264;2023-01-29T06:22:23;94593.53;;;2.34;nan
6345;BME280;3205;42.666;23.264;2023-01-29T06:24:49;94596.31;;;2.42;nan
6345;BME280;3205;42.666;23.264;2023-01-29T06:27:15;94601.69;;;2.51;nan
6345;BME280;3205;42.666;23.264;2023-01-29T06:29:42;94612.41;;;2.49;nan
6345;BME280;3205;42.666;23.264;2023-01-29T06:32:08;94603.63;;;2.40;nan
6345;BME280;3205;42.666;23.264;2023-01-29T06:34:34;94610.03;;;2.53;nan
6345;BME280;3205;42.666;23.264;2023-01-29T06:37:01;94612.13;;;2.51;nan
6345;BME280;3205;42.666;23.264;2023-01-29T06:39:27;94627.47;;;2.57;nan
6345;BME280;3205;42.666;23.264;2023-01-29T06:41:53;94624.56;;;2.59;nan
6345;BME280;3205;42.666;23.264;2023-01-29T06:44:19;94624.50;;;2.64;nan
6345;BME280;3205;42.666;23.264;2023-01-29T06:46:46;94621.28;;;2.72;nan
6345;BME280;3205;42.666;23.264;2023-01-29T06:49:12;94629.84;;;2.77;nan
6345;BME280;3205;42.666;23.264;2023-01-29T06:51:38;94622.28;;;2.76;nan
6345;BME280;3205;42.666;23.264;2023-01-29T06:54:04;94626.13;;;2.83;nan
6345;BME280;3205;42.666;23.264;2023-01-29T06:56:32;94639.84;;;2.93;nan
6345;BME280;3205;42.666;23.264;2023-01-29T06:58:59;94635.81;;;3.01;nan
6345;BME280;3205;42.666;23.264;2023-01-29T07:01:25;94637.94;;;2.99;nan
6345;BME280;3205;42.666;23.264;2023-01-29T07:03:52;94634.38;;;3.13;nan
6345;BME280;3205;42.666;23.264;2023-01-29T07:06:18;94633.31;;;3.14;nan
6345;BME280;3205;42.666;23.264;2023-01-29T07:08:44;94641.78;;;3.06;nan
6345;BME280;3205;42.666;23.264;2023-01-29T07:11:11;94640.50;;;3.04;nan
6345;BME280;3205;42.666;23.264;2023-01-29T07:13:37;94647.66;;;3.17;nan
6345;BME280;3205;42.666;23.264;2023-01-29T07:16:04;94647.88;;;3.20;nan
6345;BME280;3205;42.666;23.264;2023-01-29T07:18:31;94661.91;;;3.24;nan
6345;BME280;3205;42.666;23.264;2023-01-29T07:21:03;94657.84;;;3.37;nan
6345;BME280;3205;42.666;23.264;2023-01-29T07:23:29;94660.94;;;3.20;nan
6345;BME280;3205;42.666;23.264;2023-01-29T07:25:55;94665.44;;;3.15;nan
6345;BME280;3205;42.666;23.264;2023-01-29T07:28:25;94660.78;;;3.12;nan
6345;BME280;3205;42.666;23.264;2023-01-29T07:30:56;94663.47;;;3.25;nan
6345;BME280;3205;42.666;23.264;2023-01-29T07:33:24;94663.09;;;3.13;nan
6345;BME280;3205;42.666;23.264;2023-01-29T07:35:51;94665.66;;;3.18;nan
6345;BME280;3205;42.666;23.264;2023-01-29T07:38:19;94671.09;;;3.22;nan
6345;BME280;3205;42.666;23.264;2023-01-29T07:40:47;94667.22;;;3.19;nan
6345;BME280;3205;42.666;23.264;2023-01-29T07:43:13;94668.78;;;3.20;nan
6345;BME280;3205;42.666;23.264;2023-01-29T07:45:40;94662.50;;;3.21;nan
6345;BME280;3205;42.666;23.264;2023-01-29T07:48:10;94675.69;;;3.30;nan
6345;BME280;3205;42.666;23.264;2023-01-29T07:50:36;94668.69;;;3.25;nan
6345;BME280;3205;42.666;23.264;2023-01-29T07:53:03;94675.59;;;3.16;nan
6345;BME280;3205;42.666;23.264;2023-01-29T07:55:30;94679.66;;;3.27;nan
6345;BME280;3205;42.666;23.264;2023-01-29T07:57:57;94681.44;;;3.32;nan
6345;BME280;3205;42.666;23.264;2023-01-29T08:00:24;94684.09;;;3.27;nan
6345;BME280;3205;42.666;23.264;2023-01-29T08:02:50;94688.03;;;3.24;nan
6345;BME280;3205;42.666;23.264;2023-01-29T08:05:17;94686.59;;;3.37;nan
6345;BME280;3205;42.666;23.264;2023-01-29T08:07:43;94690.69;;;3.43;nan
6345;BME280;3205;42.666;23.264;2023-01-29T08:10:10;94680.88;;;3.53;nan
6345;BME280;3205;42.666;23.264;2023-01-29T08:12:37;94690.34;;;3.49;nan
6345;BME280;3205;42.666;23.264;2023-01-29T08:15:04;94693.50;;;3.46;nan
6345;BME280;3205;42.666;23.264;2023-01-29T08:17:30;94692.97;;;3.49;nan
6345;BME280;3205;42.666;23.264;2023-01-29T08:19:56;94691.41;;;3.48;nan
6345;BME280;3205;42.666;23.264;2023-01-29T08:22:22;94692.75;;;3.64;nan
6345;BME280;3205;42.666;23.264;2023-01-29T08:24:48;94689.81;;;3.70;nan
6345;BME280;3205;42.666;23.264;2023-01-29T08:27:15;94694.75;;;3.72;nan
6345;BME280;3205;42.666;23.264;2023-01-29T08:29:41;94701.53;;;3.73;nan
6345;BME280;3205;42.666;23.264;2023-01-29T08:32:08;94703.41;;;3.67;nan
6345;BME280;3205;42.666;23.264;2023-01-29T08:34:35;94710.28;;;3.64;nan
6345;BME280;3205;42.666;23.264;2023-01-29T08:37:01;94716.31;;;3.41;nan
6345;BME280;3205;42.666;23.264;2023-01-29T08:39:27;94711.03;;;3.22;nan
6345;BME280;3205;42.666;23.264;2023-01-29T08:41:53;94715.72;;;3.25;nan
6345;BME280;3205;42.666;23.264;2023-01-29T08:44:19;94716.00;;;3.24;nan
6345;BME280;3205;42.666;23.264;2023-01-29T08:46:46;94711.47;;;3.29;nan
6345;BME280;3205;42.666;23.264;2023-01-29T08:49:12;94712.34;;;3.25;nan
6345;BME280;3205;42.666;23.264;2023-01-29T08:51:38;94718.09;;;3.22;nan
6345;BME280;3205;42.666;23.264;2023-01-29T08:54:04;94724.38;;;3.21;nan
6345;BME280;3205;42.666;23.264;2023-01-29T08:56:31;94728.88;;;3.15;nan
6345;BME280;3205;42.666;23.264;2023-01-29T08:58:57;94730.19;;;3.18;nan
6345;BME280;3205;42.666;23.264;2023-01-29T09:01:23;94737.38;;;3.26;nan
6345;BME280;3205;42.666;23.264;2023-01-29T09:03:50;94731.91;;;3.27;nan
6345;BME280;3205;42.666;23.264;2023-01-29T09:06:17;94736.59;;;3.25;nan
6345;BME280;3205;42.666;23.264;2023-01-29T09:08:43;94738.38;;;3.06;nan
6345;BME280;3205;42.666;23.264;2023-01-29T09:11:10;94732.28;;;3.16;nan
6345;BME280;3205;42.666;23.264;2023-01-29T09:13:36;94736.09;;;3.23;nan
6345;BME280;3205;42.666;23.264;2023-01-29T09:16:03;94728.78;;;3.25;nan
6345;BME280;3205;42.666;23.264;2023-01-29T09:18:30;94726.06;;;3.35;nan
6345;BME280;3205;42.666;23.264;2023-01-29T09:20:57;94728.81;;;3.44;nan
6345;BME280;3205;42.666;23.264;2023-01-29T09:23:23;94730.59;;;3.48;nan
6345;BME280;3205;42.666;23.264;2023-01-29T09:25:49;94725.53;;;3.57;nan
6345;BME280;3205;42.666;23.264;2023-01-29T09:28:15;94730.91;;;3.65;nan
6345;BME280;3205;42.666;23.264;2023-01-29T09:30:42;94731.22;;;3.40;nan
6345;BME280;3205;42.666;23.264;2023-01-29T09:33:08;94724.44;;;3.39;nan
6345;BME280;3205;42.666;23.264;2023-01-29T09:35:34;94728.66;;;3.35;nan
6345;BME280;3205;42.666;23.264;2023-01-29T09:38:01;94718.34;;;3.67;nan
6345;BME280;3205;42.666;23.264;2023-01-29T09:40:32;94724.84;;;3.88;nan
6345;BME280;3205;42.666;23.264;2023-01-29T09:43:02;94723.16;;;3.78;nan
6345;BME280;3205;42.666;23.264;2023-01-29T09:45:29;94718.41;;;3.80;nan
6345;BME280;3205;42.666;23.264;2023-01-29T09:47:58;94720.19;;;3.85;nan
6345;BME280;3205;42.666;23.264;2023-01-29T09:50:29;94715.88;;;3.94;nan
6345;BME280;3205;42.666;23.264;2023-01-29T09:52:58;94713.88;;;3.86;nan
6345;BME280;3205;42.666;23.264;2023-01-29T09:55:28;94718.34;;;3.85;nan
6345;BME280;3205;42.666;23.264;2023-01-29T09:57:58;94711.34;;;3.81;nan
6345;BME280;3205;42.666;23.264;2023-01-29T10:00:31;94719.31;;;3.71;nan
6345;BME280;3205;42.666;23.264;2023-01-29T10:03:14;94712.41;;;3.80;nan
6345;BME280;3205;42.666;23.264;2023-01-29T10:05:57;94714.72;;;3.81;nan
6345;BME280;3205;42.666;23.264;2023-01-29T10:08:50;94716.28;;;3.82;nan
6345;BME280;3205;42.666;23.264;2023-01-29T10:11:31;94704.84;;;3.78;nan
6345;BME280;3205;42.666;23.264;2023-01-29T10:14:12;94701.94;;;3.62;nan
6345;BME280;3205;42.666;23.264;2023-01-29T10:16:52;94701.16;;;3.61;nan
6345;BME280;3205;42.666;23.264;2023-01-29T10:19:38;94703.91;;;3.51;nan
6345;BME280;3205;42.666;23.264;2023-01-29T10:22:29;94694.72;;;3.54;nan
6345;BME280;3205;42.666;23.264;2023-01-29T10:25:03;94694.47;;;3.55;nan
6345;BME280;3205;42.666;23.264;2023-01-29T10:27:32;94696.69;;;3.43;nan
6345;BME280;3205;42.666;23.264;2023-01-29T10:29:59;94697.13;;;3.50;nan
6345;BME280;3205;42.666;23.264;2023-01-29T10:32:28;94690.75;;;3.56;nan
6345;BME280;3205;42.666;23.264;2023-01-29T10:34:59;94684.69;;;3.61;nan
6345;BME280;3205;42.666;23.264;2023-01-29T10:37:33;94682.81;;;3.66;nan
6345;BME280;3205;42.666;23.264;2023-01-29T10:40:11;94681.16;;;3.70;nan
6345;BME280;3205;42.666;23.264;2023-01-29T10:42:45;94678.34;;;3.66;nan
6345;BME280;3205;42.666;23.264;2023-01-29T10:45:21;94681.19;;;3.52;nan
6345;BME280;3205;42.666;23.264;2023-01-29T10:48:08;94683.00;;;3.51;nan
6345;BME280;3205;42.666;23.264;2023-01-29T10:50:47;94677.13;;;3.41;nan
6345;BME280;3205;42.666;23.264;2023-01-29T10:53:33;94680.88;;;3.53;nan
6345;BME280;3205;42.666;23.264;2023-01-29T10:56:15;94676.72;;;3.52;nan
6345;BME280;3205;42.666;23.264;2023-01-29T10:58:49;94670.50;;;3.48;nan
6345;BME280;3205;42.666;23.264;2023-01-29T11:01:17;94676.22;;;3.50;nan
6345;BME280;3205;42.666;23.264;2023-01-29T11:03:43;94676.16;;;3.55;nan
6345;BME280;3205;42.666;23.264;2023-01-29T11:06:14;94674.59;;;3.54;nan
6345;BME280;3205;42.666;23.264;2023-01-29T11:08:46;94670.06;;;3.60;nan
6345;BME280;3205;42.666;23.264;2023-01-29T11:11:17;94664.06;;;3.59;nan
6345;BME280;3205;42.666;23.264;2023-01-29T11:13:52;94670.88;;;3.60;nan
6345;BME280;3205;42.666;23.264;2023-01-29T11:16:21;94662.81;;;3.57;nan
6345;BME280;3205;42.666;23.264;2023-01-29T11:18:53;94663.16;;;3.68;nan
6345;BME280;3205;42.666;23.264;2023-01-29T11:21:20;94669.66;;;3.71;nan
6345;BME280;3205;42.666;23.264;2023-01-29T11:23:46;94659.84;;;3.81;nan
6345;BME280;3205;42.666;23.264;2023-01-29T11:26:17;94662.31;;;3.73;nan
6345;BME280;3205;42.666;23.264;2023-01-29T11:28:44;94660.69;;;3.77;nan
6345;BME280;3205;42.666;23.264;2023-01-29T11:31:20;94654.41;;;3.78;nan
6345;BME280;3205;42.666;23.264;2023-01-29T11:33:47;94650.16;;;3.82;nan
6345;BME280;3205;42.666;23.264;2023-01-29T11:36:35;94645.41;;;4.02;nan
6345;BME280;3205;42.666;23.264;2023-01-29T11:39:14;94643.91;;;4.15;nan
6345;BME280;3205;42.666;23.264;2023-01-29T11:41:47;94640.50;;;4.14;nan
6345;BME280;3205;42.666;23.264;2023-01-29T11:44:17;94631.34;;;3.98;nan
6345;BME280;3205;42.666;23.264;2023-01-29T11:46:45;94635.53;;;3.99;nan
6345;BME280;3205;42.666;23.264;2023-01-29T11:49:26;94626.66;;;4.14;nan
6345;BME280;3205;42.666;23.264;2023-01-29T11:51:54;94634.50;;;4.14;nan
6345;BME280;3205;42.666;23.264;2023-01-29T11:54:26;94623.59;;;4.25;nan
6345;BME280;3205;42.666;23.264;2023-01-29T11:56:54;94636.06;;;4.28;nan
6345;BME280;3205;42.666;23.264;2023-01-29T11:59:37;94632.03;;;4.36;nan
6345;BME280;3205;42.666;23.264;2023-01-29T12:02:22;94635.53;;;4.44;nan
6345;BME280;3205;42.666;23.264;2023-01-29T12:04:52;94624.97;;;4.36;nan
6345;BME280;3205;42.666;23.264;2023-01-29T12:07:20;94633.22;;;4.43;nan
6345;BME280;3205;42.666;23.264;2023-01-29T12:09:52;94624.13;;;4.54;nan
6345;BME280;3205;42.666;23.264;2023-01-29T12:12:30;94619.28;;;4.61;nan
6345;BME280;3205;42.666;23.264;2023-01-29T12:15:18;94615.41;;;4.99;nan
6345;BME280;3205;42.666;23.264;2023-01-29T12:17:58;94617.94;;;5.04;nan
6345;BME280;3205;42.666;23.264;2023-01-29T12:20:33;94621.91;;;5.14;nan
6345;BME280;3205;42.666;23.264;2023-01-29T12:23:05;94622.97;;;5.27;nan
6345;BME280;3205;42.666;23.264;2023-01-29T12:25:45;94628.91;;;5.06;nan
6345;BME280;3205;42.666;23.264;2023-01-29T12:28:23;94627.75;;;4.98;nan
6345;BME280;3205;42.666;23.264;2023-01-29T12:31:07;94631.13;;;4.85;nan
6345;BME280;3205;42.666;23.264;2023-01-29T12:33:45;94622.69;;;4.75;nan
6345;BME280;3205;42.666;23.264;2023-01-29T12:36:17;94623.84;;;4.55;nan
6345;BME280;3205;42.666;23.264;2023-01-29T12:38:46;94626.94;;;4.57;nan
6345;BME280;3205;42.666;23.264;2023-01-29T12:41:24;94635.72;;;4.48;nan
6345;BME280;3205;42.666;23.264;2023-01-29T12:43:55;94626.31;;;4.34;nan
6345;BME280;3205;42.666;23.264;2023-01-29T12:46:25;94627.97;;;4.30;nan
6345;BME280;3205;42.666;23.264;2023-01-29T12:48:55;94623.59;;;4.25;nan
6345;BME280;3205;42.666;23.264;2023-01-29T12:51:27;94631.44;;;4.25;nan
6345;BME280;3205;42.666;23.264;2023-01-29T12:53:58;94632.00;;;4.22;nan
6345;BME280;3205;42.666;23.264;2023-01-29T12:56:29;94633.94;;;4.17;nan
6345;BME280;3205;42.666;23.264;2023-01-29T12:58:59;94627.63;;;4.18;nan
6345;BME280;3205;42.666;23.264;2023-01-29T13:01:30;94624.03;;;4.14;nan
6345;BME280;3205;42.666;23.264;2023-01-29T13:04:01;94625.00;;;4.18;nan
6345;BME280;3205;42.666;23.264;2023-01-29T13:06:31;94631.75;;;4.05;nan
6345;BME280;3205;42.666;23.264;2023-01-29T13:09:02;94616.41;;;3.99;nan
6345;BME280;3205;42.666;23.264;2023-01-29T13:11:34;94621.53;;;3.90;nan
6345;BME280;3205;42.666;23.264;2023-01-29T13:14:07;94624.84;;;3.96;nan
6345;BME280;3205;42.666;23.264;2023-01-29T13:16:40;94619.97;;;3.89;nan
6345;BME280;3205;42.666;23.264;2023-01-29T13:19:16;94615.72;;;3.93;nan
6345;BME280;3205;42.666;23.264;2023-01-29T13:21:46;94619.47;;;3.87;nan
6345;BME280;3205;42.666;23.264;2023-01-29T13:24:16;94608.28;;;4.00;nan
6345;BME280;3205;42.666;23.264;2023-01-29T13:26:44;94618.09;;;4.08;nan
6345;BME280;3205;42.666;23.264;2023-01-29T13:29:20;94618.09;;;4.08;nan
6345;BME280;3205;42.666;23.264;2023-01-29T13:31:48;94620.44;;;4.10;nan
6345;BME280;3205;42.666;23.264;2023-01-29T13:34:20;94628.84;;;4.07;nan
6345;BME280;3205;42.666;23.264;2023-01-29T13:36:49;94635.16;;;4.06;nan
6345;BME280;3205;42.666;23.264;2023-01-29T13:39:21;94630.56;;;3.98;nan
6345;BME280;3205;42.666;23.264;2023-01-29T13:41:50;94628.44;;;4.00;nan
6345;BME280;3205;42.666;23.264;2023-01-29T13:44:20;94632.22;;;4.07;nan
6345;BME280;3205;42.666;23.264;2023-01-29T13:46:54;94641.22;;;4.01;nan
6345;BME280;3205;42.666;23.264;2023-01-29T13:49:28;94638.44;;;3.79;nan
6345;BME280;3205;42.666;23.264;2023-01-29T13:51:56;94637.16;;;3.77;nan
6345;BME280;3205;42.666;23.264;2023-01-29T13:54:24;94641.97;;;3.70;nan
6345;BME280;3205;42.666;23.264;2023-01-29T13:56:59;94639.84;;;3.72;nan
6345;BME280;3205;42.666;23.264;2023-01-29T13:59:50;94644.94;;;3.64;nan
6345;BME280;3205;42.666;23.264;2023-01-29T14:02:25;94639.41;;;3.65;nan
6345;BME280;3205;42.666;23.264;2023-01-29T14:07:52;94648.72;;;3.53;nan
6345;BME280;3205;42.666;23.264;2023-01-29T14:10:19;94647.41;;;3.55;nan